Flight Number: EUR3027 Duration: 7:00
Departure: John F Kennedy Int'l (KJFK) at 00:00 Distance: 3014 Nm
Arrival: Tel Aviv Ben Gurion (LLBG) at 07:00 Equipment: B777

Weather Information
KENNEDY INTERNATIONAL AIRPORT , NY, United States (KJFK) 40-38N 073-46W 9M May 22, 2018 - 02:51 PM EDT / 2018.05.22 1851 UTC
Wind: Variable at 6 MPH (5 KT):0
Visibility: 8 mile(s):0
Sky conditions: overcast Weather: rain Precipitation last hour: 0.02 inches Temperature: 60.1 F (15.6 C) Dew Point: 55.9 F (13.3 C) Relative Humidity: 86% Pressure (altimeter): 30.12 in. Hg (1019 hPa)
ob: KJFK 221851Z VRB05KT 8SM RA FEW020 OVC055 16/13 A3012 RMK AO2 SLP200 P0002 T01560133 cycle: 19
Sunrise: 09:35 Sunset: 00:08 (UTC)

Ben-Gurion International Airport, Israel (LLBG) 32-00N 034-54E 49M May 22, 2018 - 03:20 PM EDT / 2018.05.22 1920 UTC
Wind: Variable at 3 MPH (3 KT):0
Visibility: greater than 7 mile(s):0 Temperature: 87 F (31 C) Dew Point: 51 F (11 C) Relative Humidity: 29% Pressure (altimeter): 29.85 in. Hg (1011 hPa)
ob: LLBG 221920Z VRB03KT CAVOK 31/11 Q1011 NOSIG cycle: 19
Sunrise: 02:41 Sunset: 16:32 (UTC)

TAF:2018/05/22 18:06 TAF TAF LLBG 221703Z 2218/2318 VRB03KT CAVOK BECMG 2219/2221 16005KT TEMPO 2221/2305 26010KT BECMG 2305/2308 28013KT BECMG 2315/2317 VRB04KT TX33/2312Z TN25/2304Z

This route has never been flown.

Route map